Time;durP1;ratioP1;P1;durP2;ratioP2;P2;SDS_P1;SDS_P2;PMS_P1;PMS_P2;Temp;Humidity;BMP_temperature;BMP_pressure;BME280_temperature;BME280_humidity;BME280_pressure;Samples;Min_cycle;Max_cycle;Signal;HPM_P1;HPM_P2
2022/02/19 00:00:37;;;;;;;21.52;15.03;;;;;;;;;;783296;76;26305;-78
2022/02/19 00:01:40;;;;;;;26.52;16.37;;;;;;;;;;783110;76;26396;-78
2022/02/19 00:06:38;;;;;;;27.55;15.83;;;;;;;;;;783522;76;26325;-78
2022/02/19 00:07:36;;;;;;;28.73;15.78;;;;;;;;;;785748;75;26251;-78
2022/02/19 00:08:40;;;;;;;24.57;15.85;;;;;;;;;;792785;75;26235;-77
2022/02/19 00:09:43;;;;;;;23.02;15.32;;;;;;;;;;792461;75;26280;-78
2022/02/19 00:10:46;;;;;;;24.85;15.80;;;;;;;;;;792434;75;26302;-78
2022/02/19 00:11:50;;;;;;;26.68;15.32;;;;;;;;;;792464;75;26239;-78
2022/02/19 00:12:53;;;;;;;22.02;15.08;;;;;;;;;;792369;75;26371;-78
2022/02/19 00:13:55;;;;;;;29.00;16.73;;;;;;;;;;792468;73;26246;-77
2022/02/19 00:14:58;;;;;;;25.08;16.00;;;;;;;;;;792480;75;26333;-77
2022/02/19 00:16:05;;;;;;;27.98;15.70;;;;;;;;;;792553;75;26371;-78
2022/02/19 00:17:05;;;;;;;22.05;15.03;;;;;;;;;;792414;74;26297;-78
2022/02/19 00:18:11;;;;;;;23.73;15.25;;;;;;;;;;792448;75;26251;-81
2022/02/19 00:19:12;;;;;;;24.10;14.85;;;;;;;;;;792683;75;26239;-79
2022/02/19 00:23:51;;;;;;;18.35;12.30;;;;;;;;;;792406;75;27007;-80
2022/02/19 00:24:57;;;;;;;25.72;12.88;;;;;;;;;;792903;74;26270;-80
2022/02/19 00:26:00;;;;;;;23.90;13.60;;;;;;;;;;792470;75;26693;-78
2022/02/19 00:27:03;;;;;;;18.73;12.73;;;;;;;;;;792275;75;26281;-77
2022/02/19 00:28:06;;;;;;;21.15;12.15;;;;;;;;;;792529;75;26284;-77
2022/02/19 00:29:08;;;;;;;24.57;12.40;;;;;;;;;;792386;75;26265;-78
2022/02/19 00:30:13;;;;;;;22.22;13.03;;;;;;;;;;792486;74;26351;-79
2022/02/19 00:31:16;;;;;;;19.65;12.78;;;;;;;;;;792274;75;26337;-79
2022/02/19 00:32:18;;;;;;;21.33;12.90;;;;;;;;;;792807;75;26294;-79
2022/02/19 00:33:23;;;;;;;21.48;13.22;;;;;;;;;;792598;74;26304;-79
2022/02/19 00:34:25;;;;;;;21.85;12.90;;;;;;;;;;792719;73;26762;-77
2022/02/19 00:35:28;;;;;;;18.62;12.43;;;;;;;;;;792214;75;26298;-78
2022/02/19 00:36:31;;;;;;;17.35;12.15;;;;;;;;;;792327;75;26347;-80
2022/02/19 00:37:33;;;;;;;20.35;12.95;;;;;;;;;;792380;75;26738;-77
2022/02/19 00:38:36;;;;;;;25.68;12.75;;;;;;;;;;792814;75;24278;-77
2022/02/19 00:39:39;;;;;;;23.32;12.13;;;;;;;;;;792582;75;26230;-79
2022/02/19 00:40:41;;;;;;;20.65;12.50;;;;;;;;;;793509;75;26352;-78
2022/02/19 00:41:44;;;;;;;19.62;11.78;;;;;;;;;;793446;75;26234;-78
2022/02/19 00:42:47;;;;;;;20.55;10.80;;;;;;;;;;792730;75;26740;-78
2022/02/19 00:43:51;;;;;;;17.20;11.53;;;;;;;;;;792676;75;26254;-79
2022/02/19 00:44:54;;;;;;;20.92;11.48;;;;;;;;;;792795;75;26242;-78
2022/02/19 00:45:56;;;;;;;17.05;10.50;;;;;;;;;;792137;75;26239;-79
2022/02/19 00:47:00;;;;;;;15.98;10.32;;;;;;;;;;792766;75;26324;-77
2022/02/19 00:48:02;;;;;;;20.50;9.95;;;;;;;;;;792219;75;26800;-78
2022/02/19 00:49:05;;;;;;;16.27;9.78;;;;;;;;;;792623;75;26262;-78
2022/02/19 00:50:15;;;;;;;18.20;9.30;;;;;;;;;;792808;75;26296;-78
2022/02/19 00:51:18;;;;;;;18.57;8.40;;;;;;;;;;792374;75;26292;-79
2022/02/19 00:52:21;;;;;;;15.40;8.45;;;;;;;;;;792385;74;26290;-79
2022/02/19 00:53:23;;;;;;;18.50;9.53;;;;;;;;;;792377;75;26290;-78
2022/02/19 00:54:26;;;;;;;12.07;8.88;;;;;;;;;;792547;75;26727;-78
2022/02/19 00:55:29;;;;;;;13.35;9.15;;;;;;;;;;792457;75;26226;-78
2022/02/19 00:56:31;;;;;;;13.78;8.65;;;;;;;;;;792552;75;26310;-78
2022/02/19 00:57:34;;;;;;;12.05;8.10;;;;;;;;;;792745;75;26230;-79
2022/02/19 00:58:37;;;;;;;12.05;7.67;;;;;;;;;;792317;75;27171;-78
2022/02/19 00:59:40;;;;;;;13.60;8.48;;;;;;;;;;792193;75;26297;-78
2022/02/19 01:00:43;;;;;;;14.43;7.70;;;;;;;;;;792705;75;26226;-80
2022/02/19 01:01:46;;;;;;;12.05;7.70;;;;;;;;;;792561;75;26282;-78
2022/02/19 01:02:48;;;;;;;11.33;7.80;;;;;;;;;;792367;74;26293;-78
2022/02/19 01:03:54;;;;;;;8.55;6.65;;;;;;;;;;792711;75;26722;-79
2022/02/19 01:04:56;;;;;;;13.10;7.40;;;;;;;;;;792572;75;26742;-78
2022/02/19 01:05:59;;;;;;;12.15;8.68;;;;;;;;;;792756;75;26226;-78
2022/02/19 01:07:02;;;;;;;14.63;8.73;;;;;;;;;;792698;74;26195;-77
2022/02/19 01:08:05;;;;;;;13.95;8.00;;;;;;;;;;792470;75;26309;-80
2022/02/19 01:09:08;;;;;;;14.18;8.85;;;;;;;;;;784686;75;26843;-79
2022/02/19 01:10:11;;;;;;;13.45;8.25;;;;;;;;;;784414;75;26301;-78
2022/02/19 01:11:13;;;;;;;14.87;7.85;;;;;;;;;;784418;75;26685;-78
2022/02/19 01:12:16;;;;;;;14.25;8.40;;;;;;;;;;784750;75;26555;-78
2022/02/19 01:13:19;;;;;;;15.18;7.80;;;;;;;;;;784654;75;26247;-80
2022/02/19 01:14:21;;;;;;;10.25;7.17;;;;;;;;;;784271;75;26243;-79
2022/02/19 01:15:38;;;;;;;9.28;6.20;;;;;;;;;;784592;75;26309;-78
2022/02/19 01:16:41;;;;;;;11.33;7.10;;;;;;;;;;784427;75;26289;-78
2022/02/19 01:17:44;;;;;;;9.50;6.92;;;;;;;;;;784053;75;26240;-77
2022/02/19 01:18:47;;;;;;;10.48;7.75;;;;;;;;;;784457;75;26243;-77
2022/02/19 01:19:50;;;;;;;10.72;6.60;;;;;;;;;;784099;75;26259;-77
2022/02/19 01:20:52;;;;;;;10.38;7.55;;;;;;;;;;784432;75;26693;-79
2022/02/19 01:21:55;;;;;;;7.67;6.00;;;;;;;;;;784268;75;26364;-80
2022/02/19 01:22:59;;;;;;;11.75;7.20;;;;;;;;;;784358;75;26236;-77
2022/02/19 01:24:02;;;;;;;9.20;6.42;;;;;;;;;;784410;75;26333;-78
2022/02/19 01:25:05;;;;;;;9.70;6.60;;;;;;;;;;784254;75;26348;-78
2022/02/19 01:26:07;;;;;;;12.35;7.45;;;;;;;;;;784049;75;26278;-79
2022/02/19 01:27:10;;;;;;;12.73;7.03;;;;;;;;;;784461;75;26235;-80
2022/02/19 01:28:13;;;;;;;10.53;6.58;;;;;;;;;;784351;75;26243;-79
2022/02/19 01:32:58;;;;;;;10.18;6.75;;;;;;;;;;784342;75;26211;-79
2022/02/19 01:34:01;;;;;;;10.95;6.92;;;;;;;;;;784278;75;26239;-78
2022/02/19 01:35:04;;;;;;;12.30;6.40;;;;;;;;;;784247;75;26290;-80
2022/02/19 01:36:30;;;;;;;8.90;6.05;;;;;;;;;;784335;75;26787;-80
2022/02/19 01:37:33;;;;;;;13.98;7.08;;;;;;;;;;784331;75;26666;-81
2022/02/19 01:38:35;;;;;;;11.45;6.40;;;;;;;;;;784103;75;26427;-81
2022/02/19 01:43:33;;;;;;;10.03;5.03;;;;;;;;;;784450;75;26231;-81
2022/02/19 01:44:37;;;;;;;10.40;6.30;;;;;;;;;;784480;75;26271;-80
2022/02/19 01:47:19;;;;;;;11.65;6.15;;;;;;;;;;784503;75;26675;-79
2022/02/19 01:48:51;;;;;;;5.60;4.70;;;;;;;;;;784472;75;26235;-79
2022/02/19 01:49:54;;;;;;;6.70;5.15;;;;;;;;;;784324;75;26331;-79
2022/02/19 01:50:57;;;;;;;9.80;5.90;;;;;;;;;;784237;75;26654;-81
2022/02/19 01:52:00;;;;;;;10.75;6.08;;;;;;;;;;784312;75;26332;-80
2022/02/19 01:56:43;;;;;;;6.92;5.20;;;;;;;;;;784443;75;26310;-79
2022/02/19 01:57:47;;;;;;;12.75;6.17;;;;;;;;;;784371;75;26340;-79
2022/02/19 01:58:50;;;;;;;10.25;5.58;;;;;;;;;;784452;75;26235;-80
2022/02/19 02:01:49;;;;;;;8.03;5.10;;;;;;;;;;784460;75;26284;-79
2022/02/19 02:02:52;;;;;;;7.05;4.80;;;;;;;;;;784430;75;26243;-80
2022/02/19 02:03:55;;;;;;;9.63;5.00;;;;;;;;;;784524;75;26297;-80
2022/02/19 02:04:57;;;;;;;9.50;5.25;;;;;;;;;;783871;75;26250;-80
2022/02/19 02:06:01;;;;;;;6.40;4.78;;;;;;;;;;784430;75;26236;-81
2022/02/19 02:07:21;;;;;;;7.62;5.10;;;;;;;;;;784557;75;26219;-81
2022/02/19 02:08:24;;;;;;;11.15;5.40;;;;;;;;;;784350;75;24286;-78
2022/02/19 02:09:32;;;;;;;6.60;4.40;;;;;;;;;;787331;74;26320;-78
2022/02/19 02:10:35;;;;;;;8.15;4.35;;;;;;;;;;793905;74;26293;-79
2022/02/19 02:11:38;;;;;;;9.70;5.40;;;;;;;;;;794708;74;26778;-80
2022/02/19 02:12:41;;;;;;;8.65;4.70;;;;;;;;;;795033;74;26238;-79
2022/02/19 02:13:45;;;;;;;6.72;4.35;;;;;;;;;;794963;74;26304;-78
2022/02/19 02:17:21;;;;;;;7.60;4.62;;;;;;;;;;795083;74;26195;-80
2022/02/19 02:18:34;;;;;;;6.90;4.75;;;;;;;;;;795267;74;26234;-79
2022/02/19 02:19:37;;;;;;;6.92;5.45;;;;;;;;;;795072;74;26273;-80
2022/02/19 02:20:53;;;;;;;8.08;4.67;;;;;;;;;;795264;74;26373;-81
2022/02/19 02:21:56;;;;;;;6.92;4.80;;;;;;;;;;795723;74;26660;-80
2022/02/19 02:25:25;;;;;;;5.53;4.62;;;;;;;;;;795846;74;26230;-80
2022/02/19 02:26:28;;;;;;;5.75;4.35;;;;;;;;;;795807;74;26270;-80
2022/02/19 02:30:55;;;;;;;8.73;4.50;;;;;;;;;;795039;74;26311;-81
2022/02/19 02:31:58;;;;;;;7.53;4.30;;;;;;;;;;794908;74;26640;-81
2022/02/19 02:33:11;;;;;;;7.12;4.90;;;;;;;;;;794875;74;26238;-80
2022/02/19 02:36:11;;;;;;;9.05;5.30;;;;;;;;;;795091;74;26186;-81
2022/02/19 02:37:13;;;;;;;6.72;5.42;;;;;;;;;;794962;74;26288;-80
2022/02/19 02:40:13;;;;;;;11.88;5.00;;;;;;;;;;794871;74;26734;-80
2022/02/19 02:41:16;;;;;;;6.15;5.15;;;;;;;;;;794957;74;26761;-82
2022/02/19 02:44:37;;;;;;;13.40;6.45;;;;;;;;;;795087;74;26197;-80
2022/02/19 02:45:40;;;;;;;10.32;6.75;;;;;;;;;;794770;73;26528;-80
2022/02/19 02:46:45;;;;;;;10.60;6.20;;;;;;;;;;794147;74;26278;-80
2022/02/19 02:47:48;;;;;;;14.30;6.40;;;;;;;;;;794899;73;26699;-78
2022/02/19 02:48:51;;;;;;;10.63;5.45;;;;;;;;;;794723;74;26298;-80
2022/02/19 02:53:38;;;;;;;13.10;8.20;;;;;;;;;;795070;74;26734;-79
2022/02/19 02:54:41;;;;;;;13.55;8.68;;;;;;;;;;795084;74;26242;-80
2022/02/19 02:59:21;;;;;;;12.63;8.80;;;;;;;;;;794857;74;26699;-80
2022/02/19 03:03:55;;;;;;;16.30;9.13;;;;;;;;;;794768;74;26747;-80
2022/02/19 03:05:00;;;;;;;14.38;8.60;;;;;;;;;;794876;74;26323;-80
2022/02/19 03:09:58;;;;;;;10.63;6.20;;;;;;;;;;795225;74;26199;-80
2022/02/19 03:11:00;;;;;;;11.40;6.80;;;;;;;;;;787524;74;26247;-80
2022/02/19 03:13:31;;;;;;;15.40;8.78;;;;;;;;;;783385;76;24663;-80
2022/02/19 03:14:34;;;;;;;15.38;8.85;;;;;;;;;;783555;76;26325;-81
2022/02/19 03:16:05;;;;;;;13.90;8.83;;;;;;;;;;783783;76;26723;-80
2022/02/19 03:17:08;;;;;;;12.98;8.25;;;;;;;;;;783918;76;26293;-79
2022/02/19 03:20:42;;;;;;;10.15;7.03;;;;;;;;;;783677;76;26243;-80
2022/02/19 03:21:44;;;;;;;11.30;8.25;;;;;;;;;;783932;75;26281;-78
2022/02/19 03:26:23;;;;;;;18.42;10.15;;;;;;;;;;783654;76;26626;-78
2022/02/19 03:30:45;;;;;;;22.82;12.80;;;;;;;;;;783691;76;26244;-79
2022/02/19 03:35:27;;;;;;;20.12;13.22;;;;;;;;;;785030;76;26313;-79
2022/02/19 03:36:54;;;;;;;22.58;13.00;;;;;;;;;;784961;76;26305;-78
2022/02/19 03:37:57;;;;;;;19.23;12.95;;;;;;;;;;784971;76;26496;-82
2022/02/19 03:39:13;;;;;;;18.27;12.53;;;;;;;;;;785040;74;26200;-80
2022/02/19 03:40:16;;;;;;;23.12;13.62;;;;;;;;;;784824;76;26212;-80
2022/02/19 03:41:18;;;;;;;17.55;11.80;;;;;;;;;;784990;76;26374;-79
2022/02/19 03:42:27;;;;;;;22.45;12.98;;;;;;;;;;785083;76;26256;-81
2022/02/19 03:43:30;;;;;;;18.55;13.70;;;;;;;;;;784795;74;26258;-79
2022/02/19 03:44:55;;;;;;;19.57;12.58;;;;;;;;;;785076;74;26278;-79
2022/02/19 03:45:58;;;;;;;21.10;11.55;;;;;;;;;;784843;76;26305;-80
2022/02/19 03:47:06;;;;;;;18.87;11.05;;;;;;;;;;785075;76;26235;-79
2022/02/19 03:48:09;;;;;;;15.55;10.98;;;;;;;;;;784998;76;26259;-79
2022/02/19 03:49:12;;;;;;;18.45;11.45;;;;;;;;;;784843;76;26262;-81
2022/02/19 03:50:22;;;;;;;17.65;12.10;;;;;;;;;;785139;74;26235;-79
2022/02/19 03:51:24;;;;;;;22.87;12.10;;;;;;;;;;784686;76;26251;-79
2022/02/19 03:52:27;;;;;;;21.93;11.90;;;;;;;;;;784904;76;26251;-81
2022/02/19 03:53:30;;;;;;;14.78;11.08;;;;;;;;;;784754;74;26267;-80
2022/02/19 03:54:33;;;;;;;16.25;10.95;;;;;;;;;;785123;74;26328;-77
2022/02/19 03:55:35;;;;;;;17.25;10.60;;;;;;;;;;784864;75;26325;-78
2022/02/19 03:56:47;;;;;;;17.23;11.48;;;;;;;;;;784885;74;26263;-80
2022/02/19 03:57:50;;;;;;;15.30;10.95;;;;;;;;;;784873;76;26405;-80
2022/02/19 03:58:53;;;;;;;15.98;10.25;;;;;;;;;;783827;76;26231;-80
2022/02/19 03:59:56;;;;;;;16.70;9.93;;;;;;;;;;784665;76;26227;-79
2022/02/19 04:00:59;;;;;;;17.17;10.63;;;;;;;;;;784847;76;26271;-80
2022/02/19 04:02:02;;;;;;;16.23;9.58;;;;;;;;;;784719;76;26286;-80
2022/02/19 04:03:06;;;;;;;17.10;11.15;;;;;;;;;;784826;76;26261;-83
2022/02/19 04:04:08;;;;;;;16.60;11.10;;;;;;;;;;784695;74;26313;-80
2022/02/19 04:05:12;;;;;;;16.73;10.53;;;;;;;;;;784991;74;26304;-79
2022/02/19 04:09:56;;;;;;;18.37;11.40;;;;;;;;;;784977;76;26200;-81
2022/02/19 04:10:59;;;;;;;16.95;10.58;;;;;;;;;;784584;74;26348;-80
2022/02/19 04:12:01;;;;;;;13.88;10.08;;;;;;;;;;793089;71;26215;-80
2022/02/19 04:16:45;;;;;;;14.38;9.98;;;;;;;;;;794091;71;26273;-80
2022/02/19 04:21:40;;;;;;;11.63;8.33;;;;;;;;;;794045;74;26195;-79
2022/02/19 04:22:43;;;;;;;11.53;8.63;;;;;;;;;;793847;74;26235;-80
2022/02/19 04:23:45;;;;;;;14.87;8.55;;;;;;;;;;794387;74;26281;-79
2022/02/19 04:24:49;;;;;;;14.90;9.35;;;;;;;;;;793878;71;26242;-79
2022/02/19 04:25:55;;;;;;;15.20;9.50;;;;;;;;;;794124;71;26317;-79
2022/02/19 04:26:57;;;;;;;19.87;9.50;;;;;;;;;;793936;75;26262;-78
2022/02/19 04:28:01;;;;;;;14.30;9.35;;;;;;;;;;793329;75;26298;-77
2022/02/19 04:32:58;;;;;;;10.80;8.48;;;;;;;;;;792751;75;26696;-79
2022/02/19 04:34:01;;;;;;;14.33;8.60;;;;;;;;;;792349;75;26716;-78
2022/02/19 04:35:04;;;;;;;13.80;7.97;;;;;;;;;;793118;75;26234;-79
2022/02/19 04:36:07;;;;;;;15.23;9.00;;;;;;;;;;792767;74;26360;-79
2022/02/19 04:37:10;;;;;;;14.47;8.85;;;;;;;;;;792847;75;26324;-79
2022/02/19 04:38:13;;;;;;;16.00;8.38;;;;;;;;;;792518;75;26289;-78
2022/02/19 04:39:17;;;;;;;14.65;8.38;;;;;;;;;;792726;75;26223;-79
2022/02/19 04:40:19;;;;;;;14.55;9.08;;;;;;;;;;792652;75;26664;-78
2022/02/19 04:41:33;;;;;;;13.10;9.03;;;;;;;;;;792855;74;26239;-77
2022/02/19 04:42:36;;;;;;;18.85;8.50;;;;;;;;;;792817;75;26669;-78
2022/02/19 04:43:39;;;;;;;14.10;9.43;;;;;;;;;;792465;75;26755;-77
2022/02/19 04:44:41;;;;;;;14.03;9.58;;;;;;;;;;792895;75;26269;-77
2022/02/19 04:45:45;;;;;;;15.05;8.93;;;;;;;;;;792807;75;26238;-80
2022/02/19 04:46:47;;;;;;;15.78;9.68;;;;;;;;;;792487;74;26235;-79
2022/02/19 04:47:59;;;;;;;14.28;9.80;;;;;;;;;;793233;75;26691;-77
2022/02/19 04:49:01;;;;;;;16.25;9.73;;;;;;;;;;793016;75;26729;-78
2022/02/19 04:50:05;;;;;;;16.15;10.03;;;;;;;;;;792785;74;26323;-79
2022/02/19 04:55:02;;;;;;;14.23;9.30;;;;;;;;;;792745;75;26215;-80
2022/02/19 04:59:28;;;;;;;18.45;9.30;;;;;;;;;;792937;75;26277;-78
2022/02/19 05:00:31;;;;;;;19.85;9.55;;;;;;;;;;792365;75;26281;-77
2022/02/19 05:01:35;;;;;;;16.23;9.60;;;;;;;;;;793145;75;26238;-78
2022/02/19 05:04:41;;;;;;;17.12;9.85;;;;;;;;;;792515;75;26182;-81
2022/02/19 05:05:44;;;;;;;15.43;9.35;;;;;;;;;;792241;75;26242;-78
2022/02/19 05:06:46;;;;;;;16.55;10.23;;;;;;;;;;792527;74;26288;-78
2022/02/19 05:07:49;;;;;;;14.43;9.33;;;;;;;;;;792208;75;26329;-78
2022/02/19 05:08:58;;;;;;;15.50;8.63;;;;;;;;;;792497;75;26227;-79
2022/02/19 05:10:01;;;;;;;16.80;10.43;;;;;;;;;;792455;75;26277;-79
2022/02/19 05:11:10;;;;;;;16.10;9.48;;;;;;;;;;792623;75;26687;-78
2022/02/19 05:12:13;;;;;;;17.25;9.28;;;;;;;;;;792501;74;26242;-78
2022/02/19 05:13:16;;;;;;;16.60;9.25;;;;;;;;;;792677;75;26227;-80
2022/02/19 05:16:30;;;;;;;15.85;9.70;;;;;;;;;;792626;75;26218;-81
2022/02/19 05:17:34;;;;;;;12.95;10.05;;;;;;;;;;792524;75;26296;-80
2022/02/19 05:22:30;;;;;;;19.85;11.22;;;;;;;;;;792760;75;26208;-78
2022/02/19 05:25:31;;;;;;;31.05;14.60;;;;;;;;;;792634;75;26686;-76
2022/02/19 05:26:34;;;;;;;30.90;14.45;;;;;;;;;;792418;75;26284;-80
2022/02/19 05:27:36;;;;;;;32.48;16.40;;;;;;;;;;792512;75;26238;-78
2022/02/19 05:31:12;;;;;;;22.48;13.13;;;;;;;;;;792592;75;26299;-79
2022/02/19 05:32:15;;;;;;;24.63;13.80;;;;;;;;;;792342;75;26374;-77
2022/02/19 05:36:47;;;;;;;23.45;13.58;;;;;;;;;;792624;75;26269;-78
2022/02/19 05:37:50;;;;;;;24.55;13.62;;;;;;;;;;791962;75;26370;-79
2022/02/19 05:38:54;;;;;;;24.00;12.63;;;;;;;;;;792220;75;26301;-78
2022/02/19 05:39:57;;;;;;;22.62;13.53;;;;;;;;;;792013;75;26579;-78
2022/02/19 05:41:00;;;;;;;23.57;13.00;;;;;;;;;;792254;75;26340;-78
2022/02/19 05:42:02;;;;;;;22.73;12.25;;;;;;;;;;792150;75;26246;-81
2022/02/19 05:43:05;;;;;;;22.15;12.58;;;;;;;;;;792210;75;26262;-79
2022/02/19 05:44:08;;;;;;;19.12;12.15;;;;;;;;;;792213;75;26302;-79
2022/02/19 05:45:11;;;;;;;19.80;11.03;;;;;;;;;;792068;75;26297;-77
2022/02/19 05:46:13;;;;;;;18.30;11.08;;;;;;;;;;792266;75;24695;-76
2022/02/19 05:47:19;;;;;;;21.48;11.15;;;;;;;;;;792201;75;26839;-78
2022/02/19 05:48:22;;;;;;;16.45;10.60;;;;;;;;;;792186;75;26408;-78
2022/02/19 05:49:25;;;;;;;19.20;11.05;;;;;;;;;;792402;75;26313;-78
2022/02/19 05:50:28;;;;;;;16.55;11.15;;;;;;;;;;793138;75;26281;-78
2022/02/19 05:51:38;;;;;;;19.55;12.47;;;;;;;;;;792367;75;26281;-77
2022/02/19 05:53:04;;;;;;;21.52;12.45;;;;;;;;;;792481;75;26292;-79
2022/02/19 05:54:07;;;;;;;16.62;13.15;;;;;;;;;;792318;75;26665;-82
2022/02/19 05:55:10;;;;;;;23.22;14.30;;;;;;;;;;792193;74;26293;-79
2022/02/19 05:56:12;;;;;;;26.20;14.58;;;;;;;;;;792110;75;26380;-83
2022/02/19 05:57:20;;;;;;;21.05;13.68;;;;;;;;;;792185;75;26314;-81
2022/02/19 05:58:22;;;;;;;22.13;15.55;;;;;;;;;;792060;75;26325;-82
2022/02/19 05:59:25;;;;;;;22.07;15.18;;;;;;;;;;791758;74;26332;-82
2022/02/19 06:00:28;;;;;;;26.73;14.00;;;;;;;;;;791941;75;26399;-83
2022/02/19 06:01:31;;;;;;;27.75;16.05;;;;;;;;;;792137;75;26317;-81
2022/02/19 06:02:33;;;;;;;25.43;16.48;;;;;;;;;;792099;75;27408;-80
2022/02/19 06:03:36;;;;;;;26.25;17.35;;;;;;;;;;792092;75;26325;-81
2022/02/19 06:04:39;;;;;;;27.62;17.82;;;;;;;;;;791771;75;26336;-80
2022/02/19 06:05:42;;;;;;;28.73;17.55;;;;;;;;;;792202;75;26438;-81
2022/02/19 06:06:45;;;;;;;31.30;20.17;;;;;;;;;;792170;75;26375;-83
2022/02/19 06:07:48;;;;;;;30.05;20.95;;;;;;;;;;792249;75;26332;-82
2022/02/19 06:08:50;;;;;;;31.23;20.57;;;;;;;;;;792267;75;26691;-82
2022/02/19 06:09:53;;;;;;;31.90;22.62;;;;;;;;;;792082;75;26392;-82
2022/02/19 06:10:58;;;;;;;34.45;21.60;;;;;;;;;;792781;75;26359;-83
2022/02/19 06:12:05;;;;;;;29.90;22.50;;;;;;;;;;792879;75;26933;-82
2022/02/19 06:13:09;;;;;;;32.38;24.18;;;;;;;;;;792268;75;26360;-82
2022/02/19 06:14:11;;;;;;;30.37;22.25;;;;;;;;;;792264;75;26747;-84
2022/02/19 06:15:14;;;;;;;33.88;23.52;;;;;;;;;;792204;75;26351;-83
2022/02/19 06:16:17;;;;;;;33.05;23.38;;;;;;;;;;791980;75;26277;-82
2022/02/19 06:17:20;;;;;;;41.08;24.20;;;;;;;;;;792303;75;26317;-83
2022/02/19 06:18:22;;;;;;;34.78;22.62;;;;;;;;;;792061;75;26321;-84
2022/02/19 06:19:25;;;;;;;32.60;23.45;;;;;;;;;;792191;75;26308;-84
2022/02/19 06:20:28;;;;;;;30.40;22.98;;;;;;;;;;792254;75;26306;-80
2022/02/19 06:21:30;;;;;;;34.70;23.98;;;;;;;;;;792105;75;26282;-84
2022/02/19 06:22:36;;;;;;;31.10;23.45;;;;;;;;;;791861;75;26813;-80
2022/02/19 06:23:40;;;;;;;34.88;23.32;;;;;;;;;;792564;75;26274;-83
2022/02/19 06:24:43;;;;;;;33.18;23.90;;;;;;;;;;792468;75;26231;-80
2022/02/19 06:25:49;;;;;;;30.15;23.52;;;;;;;;;;792560;75;26793;-82
2022/02/19 06:26:52;;;;;;;34.25;23.47;;;;;;;;;;792457;75;26339;-82
2022/02/19 06:27:54;;;;;;;30.75;23.62;;;;;;;;;;792097;75;26320;-81
2022/02/19 06:28:57;;;;;;;35.63;23.02;;;;;;;;;;792416;75;26399;-81
2022/02/19 06:30:00;;;;;;;34.10;23.45;;;;;;;;;;792260;75;26723;-81
2022/02/19 06:31:03;;;;;;;33.73;24.20;;;;;;;;;;792172;75;26238;-82
2022/02/19 06:32:06;;;;;;;33.85;24.40;;;;;;;;;;792344;75;26715;-82
2022/02/19 06:33:08;;;;;;;35.70;24.18;;;;;;;;;;792131;75;26763;-83
2022/02/19 06:34:11;;;;;;;33.90;24.02;;;;;;;;;;792375;75;26692;-82
2022/02/19 06:35:15;;;;;;;35.00;25.00;;;;;;;;;;792275;74;26306;-81
2022/02/19 06:36:18;;;;;;;33.20;24.27;;;;;;;;;;792649;75;26304;-80
2022/02/19 06:37:21;;;;;;;34.65;24.65;;;;;;;;;;791958;75;26321;-80
2022/02/19 06:38:24;;;;;;;34.30;24.32;;;;;;;;;;792097;75;26409;-80
2022/02/19 06:39:27;;;;;;;31.37;25.05;;;;;;;;;;792017;75;26285;-81
2022/02/19 06:40:29;;;;;;;37.33;26.62;;;;;;;;;;792258;75;26513;-82
2022/02/19 06:41:32;;;;;;;36.53;27.30;;;;;;;;;;792135;75;26743;-80
2022/02/19 06:42:37;;;;;;;34.63;24.43;;;;;;;;;;792201;75;26277;-82
2022/02/19 06:43:40;;;;;;;40.75;27.45;;;;;;;;;;792229;75;26700;-82
2022/02/19 06:44:43;;;;;;;36.50;26.40;;;;;;;;;;791984;75;26270;-80
2022/02/19 06:45:47;;;;;;;34.90;26.97;;;;;;;;;;792259;75;26793;-80
2022/02/19 06:46:50;;;;;;;39.13;28.85;;;;;;;;;;792151;75;26360;-82
2022/02/19 06:47:52;;;;;;;44.30;31.48;;;;;;;;;;792152;75;26338;-80
2022/02/19 06:48:55;;;;;;;43.48;31.62;;;;;;;;;;792253;75;26359;-81
2022/02/19 06:50:02;;;;;;;41.30;30.77;;;;;;;;;;792036;75;26745;-81
2022/02/19 06:51:05;;;;;;;40.08;31.85;;;;;;;;;;792144;75;26387;-81
2022/02/19 06:52:08;;;;;;;46.92;33.58;;;;;;;;;;792111;75;26391;-84
2022/02/19 06:53:10;;;;;;;40.73;31.85;;;;;;;;;;792209;75;26309;-79
2022/02/19 06:54:13;;;;;;;44.73;31.68;;;;;;;;;;792075;75;26265;-80
2022/02/19 06:55:16;;;;;;;41.63;30.90;;;;;;;;;;792102;75;26735;-79
2022/02/19 06:56:18;;;;;;;40.25;32.90;;;;;;;;;;792185;75;26282;-82
2022/02/19 06:57:21;;;;;;;43.48;33.48;;;;;;;;;;792375;75;26343;-80
2022/02/19 06:58:31;;;;;;;44.23;34.05;;;;;;;;;;792337;75;26883;-80
2022/02/19 06:59:33;;;;;;;45.43;34.90;;;;;;;;;;792361;75;26293;-81
2022/02/19 07:00:36;;;;;;;48.60;33.85;;;;;;;;;;792320;75;26238;-80
2022/02/19 07:03:36;;;;;;;45.17;33.02;;;;;;;;;;792341;75;26233;-79
2022/02/19 07:04:39;;;;;;;48.52;33.25;;;;;;;;;;792457;74;26301;-79
2022/02/19 07:05:41;;;;;;;42.23;33.42;;;;;;;;;;792087;75;26366;-82
2022/02/19 07:06:44;;;;;;;45.20;34.08;;;;;;;;;;792065;75;26313;-81
2022/02/19 07:07:47;;;;;;;41.53;32.58;;;;;;;;;;792265;75;26317;-79
2022/02/19 07:08:49;;;;;;;39.08;31.73;;;;;;;;;;792314;75;26367;-81
2022/02/19 07:09:52;;;;;;;40.65;31.07;;;;;;;;;;792309;75;26337;-81
2022/02/19 07:10:55;;;;;;;43.52;31.57;;;;;;;;;;792374;75;26243;-84
2022/02/19 07:11:58;;;;;;;41.23;32.38;;;;;;;;;;792284;75;26392;-82
2022/02/19 07:13:00;;;;;;;45.00;32.15;;;;;;;;;;792256;75;26301;-81
2022/02/19 07:14:04;;;;;;;40.88;31.15;;;;;;;;;;788794;75;26290;-82
2022/02/19 07:15:09;;;;;;;43.50;32.70;;;;;;;;;;784281;75;26315;-82
2022/02/19 07:16:12;;;;;;;38.58;30.32;;;;;;;;;;784251;75;26235;-83
2022/02/19 07:17:15;;;;;;;39.18;29.72;;;;;;;;;;784164;75;26776;-83
2022/02/19 07:18:18;;;;;;;42.30;30.95;;;;;;;;;;784104;75;26661;-83
2022/02/19 07:19:21;;;;;;;41.23;31.55;;;;;;;;;;784427;75;26287;-82
2022/02/19 07:20:24;;;;;;;39.60;30.62;;;;;;;;;;783996;75;26295;-82
2022/02/19 07:21:27;;;;;;;40.98;29.80;;;;;;;;;;783959;75;26286;-81
2022/02/19 07:22:29;;;;;;;38.73;29.70;;;;;;;;;;784077;75;26875;-83
2022/02/19 07:23:32;;;;;;;42.55;29.02;;;;;;;;;;783699;75;26701;-81
2022/02/19 07:24:35;;;;;;;37.25;28.90;;;;;;;;;;784139;75;26836;-81
2022/02/19 07:25:37;;;;;;;43.70;30.08;;;;;;;;;;783949;75;26345;-81
2022/02/19 07:26:40;;;;;;;45.35;30.48;;;;;;;;;;784025;75;26266;-82
2022/02/19 07:27:44;;;;;;;37.17;29.50;;;;;;;;;;783973;75;26348;-81
2022/02/19 07:28:47;;;;;;;35.50;29.00;;;;;;;;;;784291;75;26231;-81
2022/02/19 07:29:50;;;;;;;35.50;29.05;;;;;;;;;;784102;75;26334;-81
2022/02/19 07:30:54;;;;;;;39.30;29.45;;;;;;;;;;784222;75;26371;-81
2022/02/19 07:31:58;;;;;;;36.63;27.95;;;;;;;;;;784076;75;26302;-82
2022/02/19 07:33:01;;;;;;;34.92;28.17;;;;;;;;;;784573;75;26364;-85
2022/02/19 07:34:05;;;;;;;33.42;27.67;;;;;;;;;;784167;75;26301;-83
2022/02/19 07:35:08;;;;;;;35.83;27.67;;;;;;;;;;783844;75;26626;-83
2022/02/19 07:36:11;;;;;;;34.43;27.10;;;;;;;;;;784514;75;26262;-86
2022/02/19 07:37:14;;;;;;;34.63;27.65;;;;;;;;;;784676;75;26309;-84
2022/02/19 07:38:17;;;;;;;44.18;29.20;;;;;;;;;;784388;75;26372;-85
2022/02/19 07:39:19;;;;;;;33.60;27.20;;;;;;;;;;784025;75;26246;-83
2022/02/19 07:40:22;;;;;;;35.23;29.45;;;;;;;;;;783912;75;26729;-84
2022/02/19 07:41:25;;;;;;;38.58;29.87;;;;;;;;;;783966;75;26278;-82
2022/02/19 07:42:28;;;;;;;37.78;30.43;;;;;;;;;;784186;75;26356;-82
2022/02/19 07:43:30;;;;;;;36.42;28.70;;;;;;;;;;784082;75;26352;-82
2022/02/19 07:44:33;;;;;;;38.67;28.45;;;;;;;;;;784199;75;26368;-82
2022/02/19 07:45:36;;;;;;;36.90;29.70;;;;;;;;;;783883;75;26745;-81
2022/02/19 07:46:39;;;;;;;36.17;29.65;;;;;;;;;;783939;75;26309;-80
2022/02/19 07:47:42;;;;;;;38.02;29.02;;;;;;;;;;784092;75;26333;-82
2022/02/19 07:48:44;;;;;;;39.33;30.20;;;;;;;;;;784198;75;26235;-78
2022/02/19 07:59:14;;;;;;;29.00;22.73;;;;;;;;;;784364;75;26678;-82
2022/02/19 08:00:16;;;;;;;33.13;22.55;;;;;;;;;;784470;75;26228;-83
2022/02/19 08:01:19;;;;;;;30.10;23.12;;;;;;;;;;783963;75;26408;-83
2022/02/19 08:02:22;;;;;;;26.05;22.40;;;;;;;;;;783994;75;26368;-84
2022/02/19 08:03:25;;;;;;;28.40;22.42;;;;;;;;;;783990;75;26295;-83
2022/02/19 08:04:28;;;;;;;30.30;22.32;;;;;;;;;;784034;75;26325;-80
2022/02/19 08:05:31;;;;;;;27.20;19.32;;;;;;;;;;784052;75;26239;-85
2022/02/19 08:06:34;;;;;;;23.40;18.12;;;;;;;;;;784059;75;26360;-84
2022/02/19 08:07:36;;;;;;;27.25;16.95;;;;;;;;;;783889;75;26314;-81
2022/02/19 08:08:39;;;;;;;23.57;17.42;;;;;;;;;;783964;75;26313;-84
2022/02/19 08:09:42;;;;;;;20.50;15.88;;;;;;;;;;784098;75;26333;-84
2022/02/19 08:10:46;;;;;;;24.60;17.20;;;;;;;;;;784032;75;26316;-82
2022/02/19 08:11:48;;;;;;;25.12;17.07;;;;;;;;;;783977;75;26380;-83
2022/02/19 08:12:51;;;;;;;22.25;17.45;;;;;;;;;;783891;75;26294;-85
2022/02/19 08:13:54;;;;;;;23.00;17.45;;;;;;;;;;784088;75;26309;-83
2022/02/19 08:14:57;;;;;;;23.22;17.82;;;;;;;;;;787796;74;26727;-83
2022/02/19 08:16:02;;;;;;;21.27;17.45;;;;;;;;;;794820;74;26342;-84